Anchorage, AK (99521)

9:27 AM AKST on February 13, 2016 (GMT -0900)
Muldoon | | Change Station
CLOSE
Current Station
Personal Weather Station
Location: Anchorage, AK
Elevation: 295 ft
Nearby Weather Stations

Elev 295 ft 61.20 °N, 149.73 °W | Updated 5 seconds ago

Overcast
Overcast
35.6 °F
Feels Like 36 °F
N
2.7
Wind Variable Wind from SE
Gusts 4.6 mph

Today
High -- | Low -- °F
--% Chance of Precip.
Yesterday
High -- | Low -- °F
Precip. -- in
Pressure 29.40 in
Visibility 10.0 miles
Clouds Overcast 12000 ft
Windchill 36 °F
Dew Point 29 °F
Humidity 78%
Rainfall 0.00 in
Snow Depth Not available.
8:47 AM 5:39 PM
Waxing Crescent, 33% visible
METAR PAED 131758Z AUTO 34012KT 10SM OVC120 02/M01 A2941 RMK AO2 SLP956 60000 T00191014 10021 21004 52012 $
Pressure 29.40 in
Visibility 10.0 miles
Clouds Overcast 12000 ft
Windchill 36 °F
Dew Point 29 °F
Humidity 78%
Rainfall 0.00 in
Snow Depth Not available.
8:47 AM 5:39 PM
Waxing Crescent, 33% visible
METAR PAED 131758Z AUTO 34012KT 10SM OVC120 02/M01 A2941 RMK AO2 SLP956 60000 T00191014 10021 21004 52012 $

10-Day Weather Forecast

Almanac

Astronomy

Feb. 13, 2016 Rise Set
Actual Time
Civil Twilight
Nautical Twilight
Astronomical Twilight
Moon
Length of Visible Light
Length of Day
Tomorrow will be .
, % of the Moon is Illuminated

Today's Extremes

State Highs State Lows

Community

WunderPhotos

Upload Photos

1,892,632 photos uploaded!

WunderBlog® & News

Nearby

Air Quality

  Air Quality AQ Index Pollutant
Not available.

Snow Depth

Station Depth Elevation

Earthquake Activity

City Distance Mag. Time & Date
Minimum magnitude displayed is 2.5.

Coastal Water Temperatures

Place Temperature

Stations

Nearby Weather Stations

Station Location Temp. Windchill Dew Point Humidity Wind Precip. Elev Updated Type
                   

Watches & Warnings

There are currently no watches in effect.